createdAt,value
2022-07-31T00:00:15.132Z,99140.78
2022-07-31T00:02:41.998Z,99144.88
2022-07-31T00:05:09.424Z,99149.88
2022-07-31T00:07:36.286Z,99139.31
2022-07-31T00:10:04.899Z,99145.66
2022-07-31T00:12:31.745Z,99133.88
2022-07-31T00:14:58.559Z,99143.53
2022-07-31T00:17:25.403Z,99146.63
2022-07-31T00:19:52.294Z,99143.59
2022-07-31T00:22:19.212Z,99140.00
2022-07-31T00:24:46.047Z,99116.88
2022-07-31T00:27:12.874Z,99132.59
2022-07-31T00:29:39.926Z,99142.41
2022-07-31T00:32:06.780Z,99138.97
2022-07-31T00:34:33.611Z,99147.44
2022-07-31T00:37:00.723Z,99136.13
2022-07-31T00:39:27.905Z,99137.94
2022-07-31T00:41:55.142Z,99147.63
2022-07-31T00:44:21.997Z,99148.44
2022-07-31T00:46:50.144Z,99151.06
2022-07-31T00:49:17.157Z,99144.16
2022-07-31T00:51:45.105Z,99141.66
2022-07-31T00:54:15.523Z,99130.84
2022-07-31T00:56:50.355Z,99153.97
2022-07-31T00:59:21.723Z,99133.22
2022-07-31T01:01:51.802Z,99141.81
2022-07-31T01:04:19.710Z,99136.72
2022-07-31T01:06:47.270Z,99150.66
2022-07-31T01:09:14.862Z,99146.47
2022-07-31T01:12:03.608Z,99153.53
2022-07-31T01:14:40.784Z,99145.63
2022-07-31T01:17:09.929Z,99151.16
2022-07-31T01:19:43.575Z,99148.25
2022-07-31T01:22:56.955Z,99151.41
2022-07-31T01:25:47.540Z,99152.84
2022-07-31T01:28:58.115Z,99143.06
2022-07-31T01:31:35.089Z,99144.13
2022-07-31T01:34:25.961Z,99159.66
2022-07-31T01:37:06.147Z,99139.16
2022-07-31T01:39:38.412Z,99142.25
2022-07-31T01:42:07.687Z,99140.94
2022-07-31T01:44:43.509Z,99143.19
2022-07-31T01:47:17.442Z,99150.94
2022-07-31T01:49:46.241Z,99135.94
2022-07-31T01:52:15.158Z,99144.53
2022-07-31T01:54:43.895Z,99140.81
2022-07-31T01:57:14.310Z,99138.31
2022-07-31T01:59:48.012Z,99127.34
2022-07-31T02:02:16.589Z,99135.81
2022-07-31T02:04:47.027Z,99143.81
2022-07-31T02:07:15.120Z,99147.63
2022-07-31T02:09:57.934Z,99132.34
2022-07-31T02:12:33.362Z,99135.94
2022-07-31T02:15:06.719Z,99135.94
2022-07-31T02:17:35.081Z,99136.16
2022-07-31T02:20:05.786Z,99117.94
2022-07-31T02:22:34.277Z,99145.38
2022-07-31T02:25:03.029Z,99158.63
2022-07-31T02:27:57.709Z,99138.22
2022-07-31T02:30:19.134Z,99148.13
2022-07-31T02:32:48.650Z,99130.47
2022-07-31T02:35:17.430Z,99148.97
2022-07-31T02:37:45.530Z,99151.91
2022-07-31T02:40:14.263Z,99141.44
2022-07-31T02:42:41.829Z,99150.47
2022-07-31T02:45:12.333Z,99135.13
2022-07-31T02:47:39.839Z,99147.41
2022-07-31T02:50:08.767Z,99126.66
2022-07-31T02:52:35.712Z,99142.38
2022-07-31T02:55:03.320Z,99139.16
2022-07-31T02:57:30.393Z,99134.63
2022-07-31T02:59:57.335Z,99124.25
2022-07-31T03:02:24.197Z,99144.03
2022-07-31T03:05:04.271Z,99129.25
2022-07-31T03:07:31.529Z,99130.44
2022-07-31T03:09:58.765Z,99126.63
2022-07-31T03:12:25.663Z,99126.50
2022-07-31T03:14:54.568Z,99141.41
2022-07-31T03:17:21.637Z,99147.72
2022-07-31T03:19:49.432Z,99145.94
2022-07-31T03:22:16.441Z,99144.59
2022-07-31T03:24:43.698Z,99138.88
2022-07-31T03:27:10.736Z,99139.47
2022-07-31T03:29:43.224Z,99145.84
2022-07-31T03:32:10.862Z,99143.75
2022-07-31T03:34:37.734Z,99145.09
2022-07-31T03:37:04.573Z,99133.91
2022-07-31T03:39:31.511Z,99135.91
2022-07-31T03:41:59.406Z,99135.69
2022-07-31T03:44:26.730Z,99131.66
2022-07-31T03:46:54.029Z,99125.81
2022-07-31T03:49:21.927Z,99143.34
2022-07-31T03:51:48.850Z,99142.97
2022-07-31T03:54:15.777Z,99150.50
2022-07-31T03:56:48.606Z,99158.72
2022-07-31T03:59:17.547Z,99147.50
2022-07-31T04:01:57.494Z,99138.41
2022-07-31T04:04:25.652Z,99149.28
2022-07-31T04:06:52.859Z,99133.19
2022-07-31T04:09:20.291Z,99154.50
2022-07-31T04:11:47.161Z,99160.59
2022-07-31T04:14:13.987Z,99141.88
2022-07-31T04:16:40.850Z,99152.84
2022-07-31T04:19:07.712Z,99138.16
2022-07-31T04:21:34.669Z,99148.91
2022-07-31T04:24:01.596Z,99155.38
2022-07-31T04:26:29.444Z,99152.13
2022-07-31T04:28:56.259Z,99161.53
2022-07-31T04:31:23.993Z,99145.19
2022-07-31T04:33:56.025Z,99156.28
2022-07-31T04:36:30.097Z,99130.97
2022-07-31T04:38:59.032Z,99150.03
2022-07-31T04:41:26.335Z,99160.78
2022-07-31T04:43:53.220Z,99151.34
2022-07-31T04:46:20.307Z,99166.75
2022-07-31T04:48:47.275Z,99174.72
2022-07-31T04:51:22.410Z,99176.28
2022-07-31T04:53:50.857Z,99158.09
2022-07-31T04:56:34.125Z,99132.13
2022-07-31T04:59:05.639Z,99181.78
2022-07-31T05:01:33.576Z,99180.84
2022-07-31T05:04:00.976Z,99172.00
2022-07-31T05:06:36.383Z,99171.09
2022-07-31T05:09:08.942Z,99190.09
2022-07-31T05:11:37.580Z,99178.31
2022-07-31T05:14:07.922Z,99171.41
2022-07-31T05:16:36.547Z,99174.72
2022-07-31T05:19:05.100Z,99165.66
2022-07-31T05:21:53.163Z,99169.50
2022-07-31T05:24:32.442Z,99177.16
2022-07-31T05:27:04.704Z,99174.78
2022-07-31T05:29:32.806Z,99176.22
2022-07-31T05:32:10.395Z,99174.09
2022-07-31T05:34:37.592Z,99153.47
2022-07-31T05:37:04.634Z,99156.22
2022-07-31T05:39:31.832Z,99173.88
2022-07-31T05:41:58.660Z,99153.47
2022-07-31T05:44:25.658Z,99168.13
2022-07-31T05:49:19.454Z,99174.13
2022-07-31T05:51:47.103Z,99163.63
2022-07-31T05:54:14.281Z,99175.06
2022-07-31T05:56:41.208Z,99157.75
2022-07-31T05:59:08.063Z,99171.50
2022-07-31T06:01:34.958Z,99169.59
2022-07-31T06:04:02.596Z,99167.31
2022-07-31T06:06:29.475Z,99175.09
2022-07-31T06:09:01.852Z,99167.47
2022-07-31T06:11:30.859Z,99165.91
2022-07-31T06:13:58.277Z,99164.81
2022-07-31T06:16:25.198Z,99168.63
2022-07-31T06:18:52.469Z,99159.44
2022-07-31T06:23:45.180Z,99168.97
2022-07-31T06:26:12.327Z,99187.44
2022-07-31T06:28:48.137Z,99181.72
2022-07-31T06:31:22.400Z,99171.56
2022-07-31T06:33:50.852Z,99185.75
2022-07-31T06:36:18.618Z,99186.25
2022-07-31T06:38:48.642Z,99170.16
2022-07-31T06:41:33.834Z,99177.88
2022-07-31T06:44:00.685Z,99189.56
2022-07-31T06:46:27.620Z,99196.38
2022-07-31T06:48:54.540Z,99197.31
2022-07-31T06:51:36.834Z,99183.97
2022-07-31T06:54:07.152Z,99192.53
2022-07-31T06:56:36.084Z,99197.88
2022-07-31T06:59:04.382Z,99190.25
2022-07-31T07:01:31.542Z,99195.72
2022-07-31T07:03:58.995Z,99178.41
2022-07-31T07:06:26.310Z,99178.38
2022-07-31T07:08:53.515Z,99183.72
2022-07-31T07:11:21.167Z,99198.16
2022-07-31T07:13:48.054Z,99176.81
2022-07-31T07:16:16.071Z,99176.75
2022-07-31T07:18:43.410Z,99173.31
2022-07-31T07:21:11.214Z,99164.56
2022-07-31T07:23:38.209Z,99174.34
2022-07-31T07:26:05.943Z,99153.88
2022-07-31T07:28:33.219Z,99173.75
2022-07-31T07:31:00.051Z,99156.03
2022-07-31T07:33:41.766Z,99175.28
2022-07-31T07:36:24.202Z,99172.66
2022-07-31T07:38:54.900Z,99174.97
2022-07-31T07:41:23.995Z,99174.84
2022-07-31T07:43:51.693Z,99171.94
2022-07-31T07:46:20.320Z,99158.69
2022-07-31T07:48:47.258Z,99159.16
2022-07-31T07:51:14.268Z,99169.84
2022-07-31T07:53:41.100Z,99172.22
2022-07-31T07:56:08.055Z,99164.84
2022-07-31T07:58:35.265Z,99174.44
2022-07-31T08:01:02.155Z,99170.31
2022-07-31T08:03:50.377Z,99154.22
2022-07-31T08:06:15.848Z,99158.44
2022-07-31T08:08:42.787Z,99164.25
2022-07-31T08:11:09.752Z,99158.75
2022-07-31T08:13:36.640Z,99167.13
2022-07-31T08:16:06.634Z,99151.53
2022-07-31T08:18:33.474Z,99164.44
2022-07-31T08:21:00.328Z,99147.50
2022-07-31T08:23:27.231Z,99139.25
2022-07-31T08:25:54.165Z,99162.56
2022-07-31T08:28:25.925Z,99158.09
2022-07-31T08:30:53.918Z,99139.66
2022-07-31T08:33:21.132Z,99147.91
2022-07-31T08:35:50.880Z,99156.22
2022-07-31T08:38:19.574Z,99135.81
2022-07-31T08:40:47.203Z,99150.25
2022-07-31T08:44:00.332Z,99149.03
2022-07-31T08:46:02.895Z,99154.53
2022-07-31T08:48:33.246Z,99141.00
2022-07-31T08:51:03.388Z,99125.41
2022-07-31T08:53:32.997Z,99143.47
2022-07-31T08:56:00.466Z,99143.47
2022-07-31T08:58:27.292Z,99147.91
2022-07-31T09:00:54.937Z,99133.75
2022-07-31T09:03:22.065Z,99147.78
2022-07-31T09:05:48.988Z,99141.00
2022-07-31T09:08:15.815Z,99149.88
2022-07-31T09:10:47.721Z,99121.03
2022-07-31T09:13:19.797Z,99132.31
2022-07-31T09:15:46.836Z,99138.28
2022-07-31T09:18:22.049Z,99136.63
2022-07-31T09:20:58.667Z,99130.38
2022-07-31T09:23:27.744Z,99125.22
2022-07-31T09:26:01.952Z,99115.66
2022-07-31T09:28:38.931Z,99123.16
2022-07-31T09:31:08.406Z,99115.25
2022-07-31T09:33:41.295Z,99116.22
2022-07-31T09:36:10.647Z,99109.41
2022-07-31T09:38:42.990Z,99102.47
2022-07-31T09:42:00.119Z,99119.81
2022-07-31T09:44:09.396Z,99100.25
2022-07-31T09:46:46.905Z,99098.44
2022-07-31T09:49:14.661Z,99099.94
2022-07-31T09:51:47.771Z,99113.75
2022-07-31T09:54:27.192Z,99096.59
2022-07-31T09:56:54.357Z,99096.94
2022-07-31T09:59:21.222Z,99096.06
2022-07-31T10:01:49.277Z,99088.88
2022-07-31T10:04:20.878Z,99096.22
2022-07-31T10:06:50.106Z,99055.69
2022-07-31T10:09:21.202Z,99087.38
2022-07-31T10:11:49.908Z,99063.53
2022-07-31T10:14:25.025Z,99072.53
2022-07-31T10:16:57.025Z,99070.06
2022-07-31T10:19:26.706Z,99071.75
2022-07-31T10:22:01.735Z,99052.19
2022-07-31T10:24:36.350Z,99056.50
2022-07-31T10:27:09.180Z,99044.59
2022-07-31T10:29:39.218Z,99048.66
2022-07-31T10:32:07.985Z,99049.63
2022-07-31T10:34:35.986Z,99041.91
2022-07-31T10:37:15.374Z,99049.78
2022-07-31T10:40:27.347Z,99054.78
2022-07-31T10:43:16.756Z,99047.13
2022-07-31T10:45:52.833Z,99054.13
2022-07-31T10:48:20.409Z,99048.81
2022-07-31T10:50:48.727Z,99043.50
2022-07-31T10:53:18.095Z,99041.91
2022-07-31T10:55:45.364Z,99032.97
2022-07-31T10:58:21.393Z,99040.47
2022-07-31T11:00:51.847Z,99026.03
2022-07-31T11:03:21.456Z,99033.38
2022-07-31T11:06:01.728Z,99003.72
2022-07-31T11:08:47.379Z,99030.50
2022-07-31T11:11:15.391Z,99004.25
2022-07-31T11:13:57.856Z,99010.88
2022-07-31T11:16:24.949Z,99000.63
2022-07-31T11:19:04.228Z,99010.34
2022-07-31T11:21:38.929Z,99018.50
2022-07-31T11:24:17.335Z,99015.44
2022-07-31T11:26:58.536Z,99017.25
2022-07-31T11:29:59.337Z,99005.72
2022-07-31T11:32:27.692Z,99007.03
2022-07-31T11:34:56.833Z,98981.53
2022-07-31T11:37:39.480Z,98989.84
2022-07-31T11:40:15.200Z,99000.53
2022-07-31T11:42:46.236Z,98988.59
2022-07-31T11:45:17.500Z,98997.38
2022-07-31T11:48:10.974Z,98985.72
2022-07-31T11:50:41.586Z,98977.78
2022-07-31T11:53:08.516Z,98972.00
2022-07-31T11:55:55.866Z,98982.41
2022-07-31T11:58:25.085Z,98973.16
2022-07-31T12:01:02.195Z,98966.38
2022-07-31T12:03:36.365Z,98967.50
2022-07-31T12:06:05.859Z,98959.88
2022-07-31T12:08:35.283Z,98948.28
2022-07-31T12:11:06.485Z,98959.78
2022-07-31T12:13:33.880Z,98958.94
2022-07-31T12:16:08.478Z,98951.34
2022-07-31T12:18:53.999Z,98952.09
2022-07-31T12:21:30.790Z,98943.31
2022-07-31T12:23:58.729Z,98942.34
2022-07-31T12:26:37.448Z,98944.22
2022-07-31T12:29:10.761Z,98942.00
2022-07-31T12:31:53.930Z,98933.34
2022-07-31T12:34:38.981Z,98933.72
2022-07-31T12:37:22.520Z,98931.25
2022-07-31T12:39:59.547Z,98930.03
2022-07-31T12:42:41.136Z,98921.28
2022-07-31T12:45:19.369Z,98935.22
2022-07-31T12:47:52.024Z,98916.91
2022-07-31T12:50:25.796Z,98913.66
2022-07-31T12:52:54.843Z,98920.44
2022-07-31T12:55:22.533Z,98909.66
2022-07-31T12:57:51.758Z,98914.41
2022-07-31T13:00:23.007Z,98902.31
2022-07-31T13:02:55.059Z,98902.28
2022-07-31T13:05:22.905Z,98894.41
2022-07-31T13:07:50.300Z,98883.59
2022-07-31T13:10:21.426Z,98890.09
2022-07-31T13:12:51.303Z,98880.16
2022-07-31T13:15:22.418Z,98856.19
2022-07-31T13:17:50.504Z,98863.56
2022-07-31T13:20:18.520Z,98868.03
2022-07-31T13:22:45.400Z,98854.22
2022-07-31T13:25:12.675Z,98870.53
2022-07-31T13:27:41.762Z,98870.53
2022-07-31T13:30:09.895Z,98853.97
2022-07-31T13:32:36.880Z,98847.75
2022-07-31T13:35:24.314Z,98847.75
2022-07-31T13:37:52.589Z,98858.19
2022-07-31T13:40:19.734Z,98839.22
2022-07-31T13:42:46.543Z,98834.22
2022-07-31T13:45:13.364Z,98824.16
2022-07-31T13:47:51.099Z,98831.31
2022-07-31T13:50:19.363Z,98835.25
2022-07-31T13:52:46.282Z,98822.38
2022-07-31T13:55:13.142Z,98811.97
2022-07-31T13:57:39.940Z,98825.34
2022-07-31T14:00:07.816Z,98824.31
2022-07-31T14:02:34.767Z,98804.66
2022-07-31T14:05:01.711Z,98830.81
2022-07-31T14:07:45.360Z,98825.41
2022-07-31T14:10:20.191Z,98816.78
2022-07-31T14:12:47.537Z,98799.66
2022-07-31T14:15:14.473Z,98801.63
2022-07-31T14:17:41.307Z,98790.50
2022-07-31T14:20:09.111Z,98792.09
2022-07-31T14:22:36.070Z,98804.03
2022-07-31T14:25:03.004Z,98779.31
2022-07-31T14:27:30.390Z,98783.22
2022-07-31T14:29:57.234Z,98785.69
2022-07-31T14:32:25.128Z,98790.56
2022-07-31T14:34:52.181Z,98788.03
2022-07-31T14:37:20.428Z,98781.03
2022-07-31T14:39:47.543Z,98780.19
2022-07-31T14:42:14.711Z,98787.22
2022-07-31T14:44:42.445Z,98788.28
2022-07-31T14:47:11.672Z,98773.13
2022-07-31T14:50:08.777Z,98791.22
2022-07-31T14:52:29.269Z,98775.53
2022-07-31T14:54:59.716Z,98780.66
2022-07-31T14:57:28.229Z,98779.41
2022-07-31T14:59:55.182Z,98767.84
2022-07-31T15:02:22.921Z,98762.50
2022-07-31T15:04:51.631Z,98752.25
2022-07-31T15:07:34.627Z,98766.63
2022-07-31T15:10:06.117Z,98759.91
2022-07-31T15:12:33.170Z,98750.09
2022-07-31T15:15:00.000Z,98762.97
2022-07-31T15:17:27.042Z,98762.72
2022-07-31T15:19:53.876Z,98754.22
2022-07-31T15:22:20.868Z,98759.00
2022-07-31T15:24:49.936Z,98754.53
2022-07-31T15:27:21.858Z,98747.72
2022-07-31T15:30:05.957Z,98757.00
2022-07-31T15:32:39.034Z,98736.41
2022-07-31T15:35:09.094Z,98748.19
2022-07-31T15:37:38.396Z,98741.66
2022-07-31T15:40:08.639Z,98745.50
2022-07-31T15:42:38.350Z,98742.47
2022-07-31T15:45:16.433Z,98726.47
2022-07-31T15:47:45.500Z,98739.28
2022-07-31T15:50:18.901Z,98723.59
2022-07-31T15:52:46.200Z,98732.38
2022-07-31T15:55:13.315Z,98723.59
2022-07-31T15:57:40.173Z,98701.91
2022-07-31T16:00:13.159Z,98730.31
2022-07-31T16:02:42.589Z,98720.28
2022-07-31T16:05:21.416Z,98721.44
2022-07-31T16:08:29.714Z,98716.88
2022-07-31T16:10:44.747Z,98715.94
2022-07-31T16:13:11.576Z,98712.03
2022-07-31T16:15:38.684Z,98702.97
2022-07-31T16:18:05.829Z,98713.44
2022-07-31T16:20:32.680Z,98699.63
2022-07-31T16:23:03.527Z,98705.09
2022-07-31T16:25:34.953Z,98702.81
2022-07-31T16:28:05.629Z,98678.56
2022-07-31T16:30:32.605Z,98686.44
2022-07-31T16:32:59.549Z,98699.88
2022-07-31T16:35:26.594Z,98699.22
2022-07-31T16:37:54.421Z,98694.94
2022-07-31T16:40:29.685Z,98671.41
2022-07-31T16:43:49.757Z,98682.25
2022-07-31T16:45:52.366Z,98687.75
2022-07-31T16:48:20.013Z,98688.59
2022-07-31T16:50:53.067Z,98677.19
2022-07-31T16:54:09.748Z,98679.59
2022-07-31T16:56:17.721Z,98684.53
2022-07-31T16:58:44.556Z,98688.97
2022-07-31T17:01:57.509Z,98690.34
2022-07-31T17:04:03.593Z,98680.47
2022-07-31T17:06:34.647Z,98671.78
2022-07-31T17:09:15.777Z,98677.50
2022-07-31T17:11:47.561Z,98679.72
2022-07-31T17:14:15.480Z,98676.78
2022-07-31T17:16:46.792Z,98689.97
2022-07-31T17:19:15.137Z,98683.75
2022-07-31T17:21:43.979Z,98689.22
2022-07-31T17:24:15.717Z,98687.19
2022-07-31T17:26:43.949Z,98689.03
2022-07-31T17:29:14.060Z,98693.91
2022-07-31T17:31:41.030Z,98694.22
2022-07-31T17:34:09.515Z,98675.69
2022-07-31T17:36:36.920Z,98680.47
2022-07-31T17:39:04.707Z,98683.38
2022-07-31T17:41:32.201Z,98693.38
2022-07-31T17:43:59.043Z,98695.78
2022-07-31T17:46:34.255Z,98674.28
2022-07-31T17:49:02.056Z,98702.25
2022-07-31T17:51:28.958Z,98691.47
2022-07-31T17:53:59.520Z,98696.78
2022-07-31T17:56:26.838Z,98704.09
2022-07-31T17:58:54.041Z,98704.91
2022-07-31T18:01:24.426Z,98683.38
2022-07-31T18:03:52.572Z,98704.47
2022-07-31T18:06:19.372Z,98708.31
2022-07-31T18:08:46.221Z,98706.47
2022-07-31T18:11:13.055Z,98713.53
2022-07-31T18:13:48.228Z,98721.13
2022-07-31T18:16:19.309Z,98710.88
2022-07-31T18:18:46.265Z,98695.72
2022-07-31T18:21:14.073Z,98710.59
2022-07-31T18:23:43.652Z,98720.22
2022-07-31T18:26:14.694Z,98720.16
2022-07-31T18:28:41.606Z,98724.34
2022-07-31T18:31:12.842Z,98705.84
2022-07-31T18:33:55.345Z,98715.41
2022-07-31T18:36:22.644Z,98719.13
2022-07-31T18:38:50.207Z,98709.25
2022-07-31T18:41:17.441Z,98721.84
2022-07-31T18:43:44.395Z,98723.28
2022-07-31T18:46:11.984Z,98714.56
2022-07-31T18:48:38.799Z,98719.63
2022-07-31T18:51:06.652Z,98715.22
2022-07-31T18:53:34.838Z,98725.84
2022-07-31T18:56:02.443Z,98725.13
2022-07-31T18:58:34.082Z,98725.50
2022-07-31T19:01:05.283Z,98731.53
2022-07-31T19:03:35.587Z,98726.44
2022-07-31T19:06:03.042Z,98734.41
2022-07-31T19:08:31.015Z,98719.94
2022-07-31T19:10:57.829Z,98729.56
2022-07-31T19:13:24.639Z,98735.88
2022-07-31T19:15:56.678Z,98736.69
2022-07-31T19:18:28.764Z,98725.03
2022-07-31T19:21:23.151Z,98732.16
2022-07-31T19:23:49.600Z,98750.56
2022-07-31T19:26:19.053Z,98750.47
2022-07-31T19:28:50.785Z,98748.38
2022-07-31T19:31:17.694Z,98743.31
2022-07-31T19:33:44.538Z,98744.66
2022-07-31T19:36:11.398Z,98763.25
2022-07-31T19:38:40.820Z,98753.06
2022-07-31T19:41:07.632Z,98763.81
2022-07-31T19:43:34.460Z,98770.31
2022-07-31T19:46:11.361Z,98770.66
2022-07-31T19:48:46.519Z,98769.41
2022-07-31T19:51:15.744Z,98779.72
2022-07-31T19:53:44.434Z,98772.44
2022-07-31T19:56:16.886Z,98774.63
2022-07-31T19:58:47.577Z,98774.81
2022-07-31T20:01:14.672Z,98762.22
2022-07-31T20:03:41.801Z,98766.56
2022-07-31T20:06:08.830Z,98780.47
2022-07-31T20:08:35.941Z,98755.38
2022-07-31T20:11:04.516Z,98789.13
2022-07-31T20:13:35.995Z,98785.03
2022-07-31T20:16:03.235Z,98777.59
2022-07-31T20:18:30.641Z,98794.81
2022-07-31T20:21:07.736Z,98792.50
2022-07-31T20:23:38.675Z,98792.50
2022-07-31T20:26:12.412Z,98795.19
2022-07-31T20:28:40.344Z,98797.84
2022-07-31T20:31:18.441Z,98791.75
2022-07-31T20:33:57.349Z,98798.19
2022-07-31T20:36:28.487Z,98806.44
2022-07-31T20:38:56.567Z,98785.63
2022-07-31T20:41:23.366Z,98803.81
2022-07-31T20:43:50.353Z,98805.78
2022-07-31T20:46:18.172Z,98806.28
2022-07-31T20:48:45.370Z,98806.81
2022-07-31T20:51:19.216Z,98821.19
2022-07-31T20:53:47.781Z,98812.25
2022-07-31T20:56:14.863Z,98803.75
2022-07-31T20:58:42.023Z,98798.94
2022-07-31T21:01:09.496Z,98811.19
2022-07-31T21:03:37.109Z,98814.00
2022-07-31T21:06:04.683Z,98805.38
2022-07-31T21:08:31.747Z,98820.25
2022-07-31T21:10:59.674Z,98822.22
2022-07-31T21:13:28.256Z,98810.97
2022-07-31T21:15:56.134Z,98819.50
2022-07-31T21:18:23.207Z,98808.75
2022-07-31T21:20:53.675Z,98813.16
2022-07-31T21:23:22.873Z,98829.91
2022-07-31T21:25:55.045Z,98820.88
2022-07-31T21:28:24.063Z,98826.44
2022-07-31T21:30:53.703Z,98823.34
2022-07-31T21:33:20.918Z,98836.84
2022-07-31T21:35:48.227Z,98828.88
2022-07-31T21:38:15.802Z,98839.47
2022-07-31T21:40:44.379Z,98833.66
2022-07-31T21:43:15.984Z,98840.72
2022-07-31T21:45:54.858Z,98835.91
2022-07-31T21:48:25.633Z,98849.94
2022-07-31T21:50:53.258Z,98849.44
2022-07-31T21:53:20.104Z,98849.88
2022-07-31T21:55:46.919Z,98854.47
2022-07-31T21:58:13.904Z,98855.13
2022-07-31T22:00:40.893Z,98815.22
2022-07-31T22:03:07.740Z,98860.63
2022-07-31T22:05:54.062Z,98859.97
2022-07-31T22:08:21.627Z,98857.69
2022-07-31T22:10:51.244Z,98860.81
2022-07-31T22:13:19.446Z,98870.69
2022-07-31T22:15:50.506Z,98854.09
2022-07-31T22:18:33.112Z,98869.63
2022-07-31T22:21:02.035Z,98868.56
2022-07-31T22:23:29.496Z,98862.91
2022-07-31T22:25:56.450Z,98863.13
2022-07-31T22:28:25.120Z,98879.75
2022-07-31T22:30:53.245Z,98880.88
2022-07-31T22:33:21.457Z,98876.19
2022-07-31T22:35:59.605Z,98861.09
2022-07-31T22:38:30.453Z,98883.59
2022-07-31T22:40:59.321Z,98878.16
2022-07-31T22:44:10.624Z,98874.88
2022-07-31T22:46:14.870Z,98886.81
2022-07-31T22:48:41.843Z,98887.41
2022-07-31T22:51:12.868Z,98886.09
2022-07-31T22:53:43.060Z,98896.06
2022-07-31T22:56:09.883Z,98880.44
2022-07-31T22:58:36.745Z,98896.09
2022-07-31T23:01:03.894Z,98886.41
2022-07-31T23:03:30.708Z,98900.84
2022-07-31T23:06:28.045Z,98896.66
2022-07-31T23:08:44.354Z,98901.25
2022-07-31T23:11:11.181Z,98892.00
2022-07-31T23:13:39.665Z,98901.94
2022-07-31T23:16:06.495Z,98899.47
2022-07-31T23:18:33.334Z,98901.25
2022-07-31T23:21:00.153Z,98892.28
2022-07-31T23:23:26.967Z,98888.13
2022-07-31T23:25:53.778Z,98909.22
2022-07-31T23:28:20.723Z,98902.44
2022-07-31T23:30:47.516Z,98906.91
2022-07-31T23:33:16.378Z,98904.41
2022-07-31T23:35:44.039Z,98904.97
2022-07-31T23:38:10.940Z,98915.44
2022-07-31T23:40:38.205Z,98916.53
2022-07-31T23:43:05.112Z,98902.00
2022-07-31T23:45:31.937Z,98914.78
2022-07-31T23:47:59.023Z,98914.50
2022-07-31T23:50:26.772Z,98881.13
2022-07-31T23:52:53.624Z,98906.63
2022-07-31T23:55:20.532Z,98910.66
2022-07-31T23:57:47.416Z,98921.06
